KLM448 EHAM-WSSS
Flight info
| Callsign | KLM448 |
|---|---|
| Flight time | N/A |
| Altitude | 29000 |
| Route | ARNEM L620 HMM DCT NOMKA L620 OMELO DCT ODLIV DCT OMIFU DCT DEMOP DCT DINRO N743 UDROS UM859 KARDE DCT FALAZ DCT ZERGE DCT ROLIN N644 ODILI DCT BARAD M747 SUBUT T923 ERLEV M11 RODAR A909 BIBIM B450 MAMED B449 RANAH L750 ZB G202 RK P628 IBANI L510 GIVAL P628 VPL Y503 RINBA Y507 MAKNA Y511 TOPOR A464 ARAMA DCT TEBUN TEBUN1A |
| Aircraft | B77L/H-SDE1E2E3FGHIJ2J3J4J5M1RWXY/LB1D1 |
Departure
| Time | 2026-04-18 10:31 |
|---|---|
| Airport | Amsterdam Airport Schiphol (EHAM) |
Arrival
| Time | N/A |
|---|---|
| Airport | Singapore Changi Airport (WSSS) |
| Time | Latitude | Longitude | Altitude | Speed | Heading |
|---|---|---|---|---|---|
| 2026-04-18 10:16 | 52.31096 | 4.76451 | 3 ft | 0 kts | 124° |
| 2026-04-18 10:25 | 52.31097 | 4.76448 | 3 ft | 0 kts | 125° |
| 2026-04-18 10:25 | 52.31111 | 4.76417 | 5 ft | 6 kts | 129° |
| 2026-04-18 10:25 | 52.31144 | 4.76338 | 7 ft | 11 kts | 112° |
| 2026-04-18 10:26 | 52.31151 | 4.76336 | 6 ft | 4 kts | 74° |
| 2026-04-18 10:26 | 52.31158 | 4.76354 | 7 ft | 0 kts | 60° |
| 2026-04-18 10:26 | 52.31168 | 4.76367 | 6 ft | 5 kts | 39° |
| 2026-04-18 10:26 | 52.31170 | 4.76371 | 6 ft | 0 kts | 39° |
| 2026-04-18 10:27 | 52.31198 | 4.76397 | 6 ft | 11 kts | 29° |
| 2026-04-18 10:28 | 52.31310 | 4.76500 | 10 ft | 18 kts | 29° |
| 2026-04-18 10:28 | 52.31323 | 4.76511 | 11 ft | 1 kts | 29° |
| 2026-04-18 10:28 | 52.31369 | 4.76555 | 13 ft | 15 kts | 30° |
| 2026-04-18 10:28 | 52.31470 | 4.76732 | 15 ft | 28 kts | 73° |
| 2026-04-18 10:29 | 52.31479 | 4.77109 | 12 ft | 38 kts | 107° |
| 2026-04-18 10:29 | 52.31310 | 4.77479 | 15 ft | 42 kts | 140° |
| 2026-04-18 10:29 | 52.31113 | 4.77512 | 17 ft | 28 kts | 186° |
| 2026-04-18 10:29 | 52.30916 | 4.77482 | 19 ft | 29 kts | 185° |
| 2026-04-18 10:30 | 52.30709 | 4.77461 | 16 ft | 30 kts | 175° |
| 2026-04-18 10:30 | 52.30525 | 4.77573 | 26 ft | 22 kts | 160° |
| 2026-04-18 10:30 | 52.30415 | 4.77594 | 26 ft | 12 kts | 191° |
| 2026-04-18 10:30 | 52.30389 | 4.77561 | 26 ft | 0 kts | 233° |
| 2026-04-18 10:31 | 52.30313 | 4.77373 | 24 ft | 58 kts | 238° |
| 2026-04-18 10:31 | 52.29949 | 4.76428 | 24 ft | 137 kts | 238° |
| 2026-04-18 10:31 | 52.29347 | 4.74776 | 125 ft | 193 kts | 240° |
| 2026-04-18 10:31 | 52.28636 | 4.72893 | 1200 ft | 198 kts | 240° |
| 2026-04-18 10:32 | 52.27862 | 4.70917 | 1731 ft | 220 kts | 233° |
| 2026-04-18 10:32 | 52.26502 | 4.69503 | 1877 ft | 252 kts | 195° |
| 2026-04-18 10:32 | 52.24664 | 4.69652 | 2109 ft | 282 kts | 163° |
| 2026-04-18 10:32 | 52.22913 | 4.71264 | 2623 ft | 297 kts | 137° |
| 2026-04-18 10:33 | 52.21675 | 4.74023 | 3325 ft | 306 kts | 123° |
| 2026-04-18 10:33 | 52.20638 | 4.77105 | 3985 ft | 311 kts | 121° |
| 2026-04-18 10:33 | 52.19590 | 4.80215 | 4686 ft | 314 kts | 123° |
| 2026-04-18 10:33 | 52.18486 | 4.83269 | 5362 ft | 317 kts | 124° |
| 2026-04-18 10:34 | 52.17706 | 4.86653 | 6026 ft | 326 kts | 100° |
| 2026-04-18 10:34 | 52.17796 | 4.90356 | 6709 ft | 332 kts | 77° |
| 2026-04-18 10:34 | 52.18432 | 4.93986 | 7336 ft | 334 kts | 73° |
| 2026-04-18 10:34 | 52.19138 | 4.97622 | 7960 ft | 337 kts | 72° |
| 2026-04-18 10:35 | 52.19853 | 5.01284 | 8567 ft | 341 kts | 73° |
| 2026-04-18 10:35 | 52.20550 | 5.05000 | 9173 ft | 344 kts | 74° |
| 2026-04-18 10:35 | 52.21235 | 5.08704 | 9755 ft | 347 kts | 73° |
| 2026-04-18 10:35 | 52.21945 | 5.12494 | 10317 ft | 351 kts | 73° |
| 2026-04-18 10:36 | 52.22664 | 5.16313 | 10827 ft | 354 kts | 73° |
| 2026-04-18 10:36 | 52.23383 | 5.20162 | 11348 ft | 357 kts | 74° |
| 2026-04-18 10:36 | 52.24096 | 5.24061 | 11852 ft | 359 kts | 77° |
| 2026-04-18 10:36 | 52.24292 | 5.28096 | 12348 ft | 358 kts | 96° |
| 2026-04-18 10:37 | 52.24111 | 5.32185 | 12805 ft | 362 kts | 97° |
| 2026-04-18 10:37 | 52.23888 | 5.36338 | 13044 ft | 374 kts | 97° |
| 2026-04-18 10:37 | 52.23654 | 5.40648 | 13198 ft | 391 kts | 97° |
| 2026-04-18 10:37 | 52.23422 | 5.45231 | 13186 ft | 414 kts | 96° |
| 2026-04-18 10:38 | 52.23194 | 5.49895 | 13255 ft | 415 kts | 97° |
| 2026-04-18 10:38 | 52.22646 | 5.54494 | 14111 ft | 414 kts | 111° |
| 2026-04-18 10:38 | 52.21610 | 5.58915 | 14938 ft | 418 kts | 114° |
| 2026-04-18 10:38 | 52.20531 | 5.63276 | 15758 ft | 423 kts | 115° |
| 2026-04-18 10:39 | 52.19421 | 5.67751 | 16578 ft | 428 kts | 115° |
| 2026-04-18 10:39 | 52.18323 | 5.72293 | 17390 ft | 433 kts | 114° |
| 2026-04-18 10:39 | 52.17218 | 5.76876 | 18178 ft | 437 kts | 115° |
| 2026-04-18 10:39 | 52.16084 | 5.81514 | 18883 ft | 442 kts | 115° |
| 2026-04-18 10:40 | 52.14932 | 5.86187 | 19543 ft | 447 kts | 115° |
| 2026-04-18 10:40 | 52.13772 | 5.90912 | 20186 ft | 451 kts | 115° |
| 2026-04-18 10:40 | 52.12599 | 5.95689 | 20772 ft | 457 kts | 115° |
| 2026-04-18 10:40 | 52.11410 | 6.00522 | 21387 ft | 461 kts | 115° |
| 2026-04-18 10:41 | 52.10209 | 6.05382 | 21988 ft | 466 kts | 115° |
| 2026-04-18 10:41 | 52.09257 | 6.10389 | 22546 ft | 475 kts | 106° |
| 2026-04-18 10:41 | 52.08530 | 6.15657 | 23113 ft | 479 kts | 106° |
| 2026-04-18 10:41 | 52.07786 | 6.20964 | 23671 ft | 483 kts | 106° |
| 2026-04-18 10:42 | 52.07030 | 6.26326 | 24153 ft | 488 kts | 107° |
| 2026-04-18 10:42 | 52.06269 | 6.31721 | 24598 ft | 492 kts | 107° |
| 2026-04-18 10:42 | 52.05499 | 6.37162 | 25052 ft | 495 kts | 107° |
| 2026-04-18 10:42 | 52.04720 | 6.42637 | 25489 ft | 498 kts | 106° |
| 2026-04-18 10:43 | 52.03945 | 6.48075 | 25915 ft | 502 kts | 106° |
| 2026-04-18 10:43 | 52.03151 | 6.53617 | 26346 ft | 505 kts | 106° |
| 2026-04-18 10:43 | 52.02351 | 6.59179 | 26757 ft | 508 kts | 106° |
| 2026-04-18 10:43 | 52.01543 | 6.64781 | 27183 ft | 511 kts | 106° |
| 2026-04-18 10:44 | 52.00727 | 6.70418 | 27582 ft | 514 kts | 106° |
| 2026-04-18 10:44 | 51.99905 | 6.76079 | 27976 ft | 518 kts | 107° |
| 2026-04-18 10:44 | 51.99071 | 6.81792 | 28364 ft | 521 kts | 107° |
| 2026-04-18 10:44 | 51.98233 | 6.87518 | 28726 ft | 523 kts | 106° |
| 2026-04-18 10:45 | 51.97388 | 6.93272 | 29119 ft | 526 kts | 106° |
| 2026-04-18 10:45 | 51.95677 | 7.04865 | 29174 ft | 525 kts | 106° |
| 2026-04-18 10:46 | 51.93955 | 7.16423 | 29179 ft | 526 kts | 107° |
| 2026-04-18 10:46 | 51.92235 | 7.27900 | 29164 ft | 526 kts | 107° |
| 2026-04-18 10:47 | 51.89796 | 7.38968 | 28990 ft | 516 kts | 127° |
| 2026-04-18 10:47 | 51.87674 | 7.43589 | 29102 ft | 513 kts | 125° |
| 2026-04-18 10:47 | 51.86082 | 7.48762 | 29193 ft | 523 kts | 114° |
| 2026-04-18 10:47 | 51.85118 | 7.54426 | 29190 ft | 524 kts | 101° |
| 2026-04-18 10:48 | 51.84781 | 7.60322 | 29187 ft | 529 kts | 94° |
| 2026-04-18 10:48 | 51.84723 | 7.72216 | 29184 ft | 529 kts | 92° |
| 2026-04-18 10:49 | 51.84247 | 7.84039 | 29173 ft | 523 kts | 102° |
| 2026-04-18 10:49 | 51.82479 | 7.95418 | 29176 ft | 521 kts | 109° |
| 2026-04-18 10:50 | 51.80746 | 8.06820 | 29177 ft | 523 kts | 103° |
| 2026-04-18 10:50 | 51.79315 | 8.18273 | 29179 ft | 523 kts | 106° |
| 2026-04-18 10:51 | 51.77637 | 8.29708 | 29164 ft | 522 kts | 104° |
| 2026-04-18 10:51 | 51.76107 | 8.41137 | 29170 ft | 521 kts | 105° |
| 2026-04-18 10:52 | 51.74479 | 8.52467 | 29178 ft | 521 kts | 105° |
| 2026-04-18 10:52 | 51.72887 | 8.63868 | 29186 ft | 521 kts | 105° |
| 2026-04-18 10:53 | 51.71250 | 8.75275 | 29165 ft | 521 kts | 104° |
| 2026-04-18 10:53 | 51.69626 | 8.86630 | 29182 ft | 519 kts | 104° |
| 2026-04-18 10:54 | 51.67983 | 8.97959 | 29177 ft | 519 kts | 104° |
| 2026-04-18 10:54 | 51.66347 | 9.09198 | 29170 ft | 519 kts | 104° |
| 2026-04-18 10:55 | 51.64683 | 9.20522 | 29159 ft | 519 kts | 105° |
| 2026-04-18 10:55 | 51.63011 | 9.31835 | 29166 ft | 518 kts | 105° |
| 2026-04-18 10:56 | 51.61327 | 9.43142 | 29180 ft | 518 kts | 105° |
| 2026-04-18 10:56 | 51.59646 | 9.54344 | 29180 ft | 519 kts | 105° |
| 2026-04-18 10:57 | 51.57941 | 9.65634 | 29177 ft | 519 kts | 105° |
| 2026-04-18 10:57 | 51.56230 | 9.76876 | 29165 ft | 518 kts | 105° |
| 2026-04-18 10:58 | 51.54505 | 9.88132 | 29167 ft | 517 kts | 105° |
| 2026-04-18 10:58 | 51.52773 | 9.99362 | 29164 ft | 518 kts | 105° |
| 2026-04-18 10:59 | 51.51030 | 10.10580 | 29177 ft | 517 kts | 105° |
| 2026-04-18 10:59 | 51.49285 | 10.21726 | 29171 ft | 517 kts | 105° |
| 2026-04-18 11:00 | 51.47523 | 10.32923 | 29171 ft | 517 kts | 105° |
| 2026-04-18 11:00 | 51.45755 | 10.44067 | 29170 ft | 517 kts | 105° |
| 2026-04-18 11:01 | 51.43977 | 10.55234 | 29175 ft | 518 kts | 105° |
| 2026-04-18 11:01 | 51.42217 | 10.66429 | 29166 ft | 518 kts | 105° |
| 2026-04-18 11:02 | 51.39535 | 10.83196 | 29161 ft | 517 kts | 105° |
| 2026-04-18 11:02 | 51.37741 | 10.94363 | 29160 ft | 517 kts | 105° |
| 2026-04-18 11:03 | 51.35943 | 11.05446 | 29161 ft | 517 kts | 105° |
| 2026-04-18 11:03 | 51.34130 | 11.16567 | 29153 ft | 516 kts | 105° |
| 2026-04-18 11:04 | 51.32305 | 11.27677 | 29154 ft | 517 kts | 105° |
| 2026-04-18 11:04 | 51.30469 | 11.38788 | 29151 ft | 517 kts | 105° |
| 2026-04-18 11:05 | 51.28618 | 11.49917 | 29154 ft | 518 kts | 105° |
| 2026-04-18 11:05 | 51.26759 | 11.61020 | 29158 ft | 516 kts | 105° |
| 2026-04-18 11:06 | 51.25210 | 11.70219 | 29157 ft | 516 kts | 105° |
| 2026-04-18 11:06 | 51.23033 | 11.83065 | 29158 ft | 516 kts | 105° |
| 2026-04-18 11:07 | 51.21145 | 11.94125 | 29162 ft | 517 kts | 105° |
| 2026-04-18 11:07 | 51.19556 | 12.03382 | 29158 ft | 516 kts | 105° |
| 2026-04-18 11:08 | 51.17666 | 12.14335 | 29148 ft | 516 kts | 105° |
| 2026-04-18 11:08 | 51.15748 | 12.25372 | 29164 ft | 517 kts | 105° |
| 2026-04-18 11:09 | 51.13818 | 12.36414 | 29171 ft | 516 kts | 106° |
| 2026-04-18 11:09 | 51.11882 | 12.47419 | 29175 ft | 516 kts | 105° |
| 2026-04-18 11:10 | 51.09945 | 12.58367 | 29179 ft | 517 kts | 105° |
| 2026-04-18 11:10 | 51.07983 | 12.69380 | 29177 ft | 517 kts | 105° |
| 2026-04-18 11:11 | 51.06016 | 12.80361 | 29173 ft | 516 kts | 106° |
| 2026-04-18 11:11 | 51.04040 | 12.91320 | 29174 ft | 518 kts | 105° |
| 2026-04-18 11:12 | 51.02048 | 13.02310 | 29167 ft | 517 kts | 105° |
| 2026-04-18 11:12 | 51.00040 | 13.13314 | 29167 ft | 518 kts | 106° |
| 2026-04-18 11:13 | 50.98041 | 13.24209 | 29164 ft | 517 kts | 106° |
| 2026-04-18 11:13 | 50.96014 | 13.35183 | 29167 ft | 518 kts | 105° |
| 2026-04-18 11:14 | 50.93978 | 13.46151 | 29173 ft | 519 kts | 106° |
| 2026-04-18 11:14 | 50.91893 | 13.57312 | 29178 ft | 535 kts | 106° |
| 2026-04-18 11:15 | 50.89761 | 13.68603 | 29181 ft | 535 kts | 108° |
| 2026-04-18 11:15 | 50.89020 | 13.71653 | 29184 ft | 536 kts | 114° |
| 2026-04-18 11:16 | 50.85731 | 13.81312 | 29148 ft | 536 kts | 119° |
| 2026-04-18 11:16 | 50.82118 | 13.91658 | 29163 ft | 537 kts | 118° |
| 2026-04-18 11:17 | 50.78505 | 14.02001 | 29160 ft | 537 kts | 119° |
| 2026-04-18 11:17 | 50.74901 | 14.12248 | 29162 ft | 537 kts | 119° |
| 2026-04-18 11:18 | 50.71265 | 14.22565 | 29176 ft | 538 kts | 119° |
| 2026-04-18 11:18 | 50.67620 | 14.32853 | 29171 ft | 538 kts | 119° |
| 2026-04-18 11:19 | 50.63954 | 14.43164 | 29168 ft | 538 kts | 119° |
| 2026-04-18 11:19 | 50.60286 | 14.53437 | 29174 ft | 538 kts | 119° |
| 2026-04-18 11:20 | 50.56628 | 14.63642 | 29181 ft | 540 kts | 119° |
| 2026-04-18 11:20 | 50.52929 | 14.73922 | 29185 ft | 540 kts | 119° |
| 2026-04-18 11:21 | 50.49225 | 14.84170 | 29188 ft | 539 kts | 119° |
| 2026-04-18 11:21 | 50.45211 | 14.94116 | 29198 ft | 539 kts | 123° |
| 2026-04-18 11:22 | 50.41118 | 15.04000 | 29200 ft | 541 kts | 123° |
| 2026-04-18 11:22 | 50.37013 | 15.13796 | 29201 ft | 540 kts | 123° |
| 2026-04-18 11:23 | 50.32885 | 15.23655 | 29195 ft | 540 kts | 123° |
| 2026-04-18 11:23 | 50.28742 | 15.33488 | 29197 ft | 541 kts | 123° |
| 2026-04-18 11:24 | 50.24588 | 15.43323 | 29208 ft | 543 kts | 123° |
| 2026-04-18 11:24 | 50.20421 | 15.53147 | 29212 ft | 542 kts | 123° |
| 2026-04-18 11:25 | 50.16263 | 15.62913 | 29216 ft | 543 kts | 123° |
| 2026-04-18 11:25 | 50.12075 | 15.72716 | 29220 ft | 543 kts | 123° |
| 2026-04-18 11:26 | 50.07866 | 15.82528 | 29200 ft | 543 kts | 123° |
| 2026-04-18 11:26 | 50.03687 | 15.92237 | 29204 ft | 543 kts | 123° |
| 2026-04-18 11:27 | 49.99491 | 16.02028 | 29198 ft | 543 kts | 122° |
| 2026-04-18 11:27 | 49.95429 | 16.11898 | 29206 ft | 542 kts | 122° |
| 2026-04-18 11:28 | 49.91268 | 16.21710 | 29210 ft | 543 kts | 122° |
| 2026-04-18 11:28 | 49.87144 | 16.31542 | 29210 ft | 543 kts | 122° |
| 2026-04-18 11:29 | 49.83017 | 16.41268 | 29202 ft | 543 kts | 122° |
| 2026-04-18 11:29 | 49.78861 | 16.51061 | 29222 ft | 543 kts | 121° |
| 2026-04-18 11:30 | 49.74699 | 16.60823 | 29200 ft | 543 kts | 122° |
| 2026-04-18 11:30 | 49.70550 | 16.70519 | 29198 ft | 543 kts | 122° |
| 2026-04-18 11:31 | 49.66374 | 16.80244 | 29197 ft | 543 kts | 122° |
| 2026-04-18 11:31 | 49.62183 | 16.89964 | 29198 ft | 544 kts | 121° |
| 2026-04-18 11:32 | 49.57985 | 16.99670 | 29203 ft | 543 kts | 121° |
| 2026-04-18 11:32 | 49.53780 | 17.09353 | 29202 ft | 543 kts | 122° |
| 2026-04-18 11:33 | 49.49561 | 17.19035 | 29204 ft | 543 kts | 122° |
| 2026-04-18 11:33 | 49.45370 | 17.28616 | 29201 ft | 542 kts | 121° |
| 2026-04-18 11:34 | 49.41142 | 17.38251 | 29197 ft | 542 kts | 121° |
| 2026-04-18 11:34 | 49.36911 | 17.47851 | 29197 ft | 543 kts | 121° |
| 2026-04-18 11:35 | 49.32671 | 17.57444 | 29193 ft | 543 kts | 121° |
| 2026-04-18 11:35 | 49.28448 | 17.66961 | 29180 ft | 543 kts | 122° |
| 2026-04-18 11:36 | 49.24185 | 17.76534 | 29179 ft | 544 kts | 122° |
| 2026-04-18 11:36 | 49.19911 | 17.86096 | 29174 ft | 543 kts | 122° |
| 2026-04-18 11:37 | 49.15662 | 17.95572 | 29186 ft | 543 kts | 122° |
| 2026-04-18 11:37 | 49.11380 | 18.05086 | 29185 ft | 542 kts | 121° |
| 2026-04-18 11:38 | 49.07089 | 18.14586 | 29176 ft | 543 kts | 121° |
| 2026-04-18 11:38 | 49.02817 | 18.24010 | 29176 ft | 543 kts | 122° |
| 2026-04-18 11:39 | 48.98513 | 18.33471 | 29180 ft | 543 kts | 121° |
| 2026-04-18 11:39 | 48.94206 | 18.42907 | 29156 ft | 542 kts | 121° |
| 2026-04-18 11:40 | 48.89884 | 18.52341 | 29153 ft | 542 kts | 121° |
| 2026-04-18 11:40 | 48.85583 | 18.61696 | 29149 ft | 543 kts | 121° |
| 2026-04-18 11:41 | 48.81254 | 18.71081 | 29145 ft | 543 kts | 121° |
| 2026-04-18 11:41 | 48.76915 | 18.80455 | 29141 ft | 542 kts | 121° |
| 2026-04-18 11:42 | 48.72567 | 18.89817 | 29136 ft | 543 kts | 121° |
| 2026-04-18 11:42 | 48.68209 | 18.99164 | 29137 ft | 543 kts | 121° |
| 2026-04-18 11:43 | 48.63848 | 19.08487 | 29144 ft | 543 kts | 121° |
| 2026-04-18 11:43 | 48.59481 | 19.17793 | 29144 ft | 543 kts | 121° |
| 2026-04-18 11:44 | 48.55130 | 19.27030 | 29126 ft | 542 kts | 121° |
| 2026-04-18 11:44 | 48.50756 | 19.36285 | 29126 ft | 542 kts | 121° |
| 2026-04-18 11:45 | 48.46374 | 19.45525 | 29141 ft | 541 kts | 121° |
| 2026-04-18 11:45 | 48.41982 | 19.54757 | 29142 ft | 542 kts | 121° |
| 2026-04-18 11:46 | 48.37590 | 19.63953 | 29134 ft | 541 kts | 121° |
| 2026-04-18 11:46 | 48.33217 | 19.73082 | 29137 ft | 541 kts | 121° |
| 2026-04-18 11:47 | 48.28814 | 19.82243 | 29141 ft | 541 kts | 121° |
| 2026-04-18 11:47 | 48.24400 | 19.91393 | 29143 ft | 541 kts | 121° |
| 2026-04-18 11:48 | 48.19982 | 20.00522 | 29136 ft | 540 kts | 121° |
| 2026-04-18 11:48 | 48.15725 | 20.09749 | 29143 ft | 537 kts | 118° |
| 2026-04-18 11:49 | 48.11619 | 20.19102 | 29147 ft | 537 kts | 118° |
| 2026-04-18 11:49 | 48.07528 | 20.28467 | 29148 ft | 538 kts | 118° |
| 2026-04-18 11:50 | 48.03414 | 20.37824 | 29148 ft | 538 kts | 118° |
| 2026-04-18 11:50 | 47.99336 | 20.47069 | 29145 ft | 535 kts | 119° |
| 2026-04-18 11:51 | 47.95231 | 20.56355 | 29146 ft | 536 kts | 119° |
| 2026-04-18 11:51 | 47.91114 | 20.65625 | 29144 ft | 536 kts | 119° |
| 2026-04-18 11:52 | 47.86989 | 20.74891 | 29140 ft | 536 kts | 120° |
| 2026-04-18 11:52 | 47.82869 | 20.84104 | 29141 ft | 535 kts | 120° |
| 2026-04-18 11:53 | 47.78770 | 20.93247 | 29135 ft | 533 kts | 120° |
| 2026-04-18 11:53 | 47.74638 | 21.02428 | 29132 ft | 533 kts | 120° |
| 2026-04-18 11:54 | 47.70499 | 21.11597 | 29126 ft | 533 kts | 120° |
| 2026-04-18 11:54 | 47.66391 | 21.20666 | 29123 ft | 533 kts | 121° |
| 2026-04-18 11:55 | 47.62242 | 21.29796 | 29121 ft | 534 kts | 121° |
| 2026-04-18 11:55 | 47.58084 | 21.38915 | 29143 ft | 535 kts | 121° |
| 2026-04-18 11:56 | 47.53925 | 21.48001 | 29131 ft | 533 kts | 121° |
| 2026-04-18 11:56 | 47.49768 | 21.57060 | 29137 ft | 532 kts | 121° |
| 2026-04-18 11:57 | 47.45596 | 21.66118 | 29137 ft | 532 kts | 121° |
| 2026-04-18 11:57 | 47.41449 | 21.75095 | 29123 ft | 530 kts | 122° |
| 2026-04-18 11:58 | 47.37270 | 21.84110 | 29116 ft | 531 kts | 122° |
| 2026-04-18 11:58 | 47.33797 | 21.91577 | 29106 ft | 531 kts | 122° |
| 2026-04-18 11:59 | 47.28921 | 22.02029 | 29102 ft | 532 kts | 122° |
| 2026-04-18 11:59 | 47.25432 | 22.09484 | 29103 ft | 529 kts | 122° |
| 2026-04-18 12:00 | 47.21239 | 22.18420 | 29101 ft | 531 kts | 122° |
| 2026-04-18 12:00 | 47.17043 | 22.27329 | 29107 ft | 530 kts | 122° |
| 2026-04-18 12:01 | 47.10740 | 22.40660 | 29099 ft | 528 kts | 122° |
| 2026-04-18 12:02 | 47.06542 | 22.49503 | 29096 ft | 529 kts | 122° |
| 2026-04-18 12:02 | 47.02333 | 22.58341 | 29077 ft | 529 kts | 122° |
| 2026-04-18 12:03 | 46.98118 | 22.67165 | 29077 ft | 529 kts | 122° |
| 2026-04-18 12:03 | 46.93889 | 22.75985 | 29086 ft | 528 kts | 122° |
| 2026-04-18 12:04 | 46.89657 | 22.84790 | 29083 ft | 528 kts | 122° |
| 2026-04-18 12:04 | 46.85450 | 22.93511 | 29085 ft | 528 kts | 122° |
| 2026-04-18 12:05 | 46.81206 | 23.02284 | 29087 ft | 529 kts | 122° |
| 2026-04-18 12:05 | 46.76960 | 23.11031 | 29077 ft | 527 kts | 122° |
| 2026-04-18 12:06 | 46.72715 | 23.19750 | 29073 ft | 528 kts | 122° |
| 2026-04-18 12:06 | 46.68457 | 23.28467 | 29071 ft | 527 kts | 122° |
| 2026-04-18 12:07 | 46.64193 | 23.37171 | 29065 ft | 526 kts | 122° |
| 2026-04-18 12:07 | 46.59939 | 23.45825 | 29061 ft | 526 kts | 122° |
| 2026-04-18 12:08 | 46.55695 | 23.54434 | 29058 ft | 526 kts | 122° |
| 2026-04-18 12:08 | 46.51424 | 23.63070 | 29081 ft | 526 kts | 122° |
| 2026-04-18 12:09 | 46.47140 | 23.71708 | 29053 ft | 527 kts | 122° |
| 2026-04-18 12:09 | 46.42847 | 23.80334 | 29054 ft | 527 kts | 122° |
| 2026-04-18 12:10 | 46.38583 | 23.88877 | 29064 ft | 527 kts | 122° |
| 2026-04-18 12:10 | 46.34266 | 23.97498 | 29062 ft | 527 kts | 122° |
| 2026-04-18 12:11 | 46.29954 | 24.06086 | 29058 ft | 527 kts | 122° |
| 2026-04-18 12:11 | 46.25639 | 24.14652 | 29056 ft | 527 kts | 122° |
| 2026-04-18 12:12 | 46.21329 | 24.23179 | 29057 ft | 527 kts | 122° |
| 2026-04-18 12:12 | 46.16994 | 24.31734 | 29054 ft | 528 kts | 122° |
| 2026-04-18 12:13 | 46.12648 | 24.40281 | 29058 ft | 527 kts | 122° |
| 2026-04-18 12:13 | 46.08299 | 24.48812 | 29057 ft | 528 kts | 122° |
| 2026-04-18 12:14 | 46.03944 | 24.57326 | 29055 ft | 528 kts | 122° |
| 2026-04-18 12:14 | 45.99614 | 24.65766 | 29056 ft | 528 kts | 122° |
| 2026-04-18 12:15 | 45.95240 | 24.74266 | 29059 ft | 528 kts | 122° |
| 2026-04-18 12:15 | 45.90864 | 24.82745 | 29081 ft | 527 kts | 122° |
| 2026-04-18 12:16 | 45.86515 | 24.91147 | 29050 ft | 527 kts | 122° |
| 2026-04-18 12:16 | 45.82134 | 24.99583 | 29042 ft | 527 kts | 122° |
| 2026-04-18 12:17 | 45.77740 | 25.08023 | 29040 ft | 527 kts | 122° |
| 2026-04-18 12:17 | 45.73346 | 25.16431 | 29045 ft | 526 kts | 122° |
| 2026-04-18 12:18 | 45.68955 | 25.24818 | 29046 ft | 526 kts | 122° |
| 2026-04-18 12:18 | 45.64575 | 25.33150 | 29044 ft | 526 kts | 122° |
| 2026-04-18 12:19 | 45.60172 | 25.41506 | 29067 ft | 526 kts | 122° |
| 2026-04-18 12:19 | 45.55770 | 25.49836 | 29039 ft | 526 kts | 122° |
| 2026-04-18 12:20 | 45.51362 | 25.58150 | 29041 ft | 525 kts | 122° |
| 2026-04-18 12:20 | 45.46982 | 25.66388 | 29011 ft | 524 kts | 122° |
| 2026-04-18 12:21 | 45.42558 | 25.74686 | 29036 ft | 524 kts | 122° |
| 2026-04-18 12:21 | 45.38128 | 25.82969 | 29032 ft | 525 kts | 122° |
| 2026-04-18 12:22 | 45.33698 | 25.91230 | 29026 ft | 525 kts | 122° |
| 2026-04-18 12:22 | 45.29283 | 25.99440 | 29017 ft | 526 kts | 123° |
| 2026-04-18 12:23 | 45.24835 | 26.07682 | 29009 ft | 525 kts | 123° |
| 2026-04-18 12:23 | 45.20388 | 26.15904 | 29010 ft | 525 kts | 123° |
| 2026-04-18 12:24 | 45.15935 | 26.24110 | 29012 ft | 525 kts | 123° |
| 2026-04-18 12:24 | 45.11498 | 26.32264 | 29016 ft | 526 kts | 123° |
| 2026-04-18 12:25 | 45.07032 | 26.40448 | 29005 ft | 524 kts | 123° |
| 2026-04-18 12:25 | 45.02565 | 26.48612 | 29010 ft | 524 kts | 123° |
| 2026-04-18 12:26 | 44.98083 | 26.56776 | 29022 ft | 525 kts | 124° |
| 2026-04-18 12:26 | 44.93635 | 26.64856 | 29020 ft | 524 kts | 124° |
| 2026-04-18 12:27 | 44.89154 | 26.72977 | 29019 ft | 524 kts | 124° |
| 2026-04-18 12:27 | 44.84674 | 26.81070 | 29034 ft | 523 kts | 125° |
| 2026-04-18 12:28 | 44.80164 | 26.89193 | 29021 ft | 525 kts | 126° |
| 2026-04-18 12:28 | 44.75655 | 26.97294 | 29028 ft | 526 kts | 126° |
| 2026-04-18 12:29 | 44.71131 | 27.05397 | 29029 ft | 526 kts | 126° |
| 2026-04-18 12:29 | 44.66603 | 27.13485 | 29018 ft | 527 kts | 126° |
| 2026-04-18 12:30 | 44.62055 | 27.21586 | 29018 ft | 527 kts | 126° |
| 2026-04-18 12:30 | 44.57537 | 27.29611 | 29021 ft | 527 kts | 126° |
| 2026-04-18 12:31 | 44.52988 | 27.37673 | 29026 ft | 530 kts | 127° |
| 2026-04-18 12:31 | 44.48412 | 27.45747 | 29020 ft | 528 kts | 127° |
| 2026-04-18 12:32 | 44.43830 | 27.53823 | 29031 ft | 529 kts | 127° |
| 2026-04-18 12:32 | 44.39274 | 27.61822 | 29023 ft | 528 kts | 128° |
| 2026-04-18 12:33 | 44.34684 | 27.69863 | 29014 ft | 531 kts | 129° |
| 2026-04-18 12:33 | 44.30080 | 27.77902 | 29011 ft | 527 kts | 129° |
| 2026-04-18 12:34 | 44.25483 | 27.85911 | 29009 ft | 530 kts | 129° |
| 2026-04-18 12:34 | 44.20888 | 27.93895 | 29007 ft | 525 kts | 130° |
| 2026-04-18 12:35 | 44.16302 | 28.01832 | 29005 ft | 527 kts | 130° |
| 2026-04-18 12:35 | 44.11729 | 28.09735 | 29002 ft | 526 kts | 130° |
| 2026-04-18 12:36 | 44.07142 | 28.17638 | 28989 ft | 521 kts | 131° |
| 2026-04-18 12:36 | 44.02568 | 28.25492 | 28986 ft | 522 kts | 132° |
| 2026-04-18 12:37 | 43.97988 | 28.33340 | 28987 ft | 522 kts | 132° |
| 2026-04-18 12:37 | 43.93404 | 28.41174 | 28985 ft | 520 kts | 132° |
| 2026-04-18 12:38 | 43.88860 | 28.48912 | 28980 ft | 523 kts | 132° |
| 2026-04-18 12:38 | 43.84276 | 28.56708 | 28977 ft | 521 kts | 132° |
| 2026-04-18 12:39 | 43.79681 | 28.64493 | 28980 ft | 520 kts | 132° |
| 2026-04-18 12:39 | 43.75156 | 28.72142 | 28978 ft | 518 kts | 133° |
| 2026-04-18 12:40 | 43.70646 | 28.79909 | 28997 ft | 521 kts | 128° |
| 2026-04-18 12:40 | 43.67350 | 28.88899 | 28999 ft | 526 kts | 118° |
| 2026-04-18 12:41 | 43.64346 | 28.98108 | 28977 ft | 523 kts | 119° |
| 2026-04-18 12:41 | 43.61314 | 29.07290 | 28981 ft | 524 kts | 119° |
| 2026-04-18 12:42 | 43.58309 | 29.16398 | 28982 ft | 524 kts | 119° |
| 2026-04-18 12:42 | 43.55281 | 29.25531 | 28977 ft | 521 kts | 119° |
| 2026-04-18 12:43 | 43.52251 | 29.34633 | 28972 ft | 522 kts | 120° |
| 2026-04-18 12:43 | 43.49219 | 29.43724 | 28969 ft | 521 kts | 120° |
| 2026-04-18 12:44 | 43.46196 | 29.52747 | 28941 ft | 521 kts | 120° |
| 2026-04-18 12:44 | 43.43162 | 29.61778 | 28973 ft | 521 kts | 120° |
| 2026-04-18 12:45 | 43.40119 | 29.70800 | 28971 ft | 520 kts | 120° |
| 2026-04-18 12:45 | 43.37063 | 29.79836 | 28969 ft | 520 kts | 120° |
| 2026-04-18 12:46 | 43.34022 | 29.88796 | 28967 ft | 520 kts | 120° |
| 2026-04-18 12:46 | 43.30954 | 29.97806 | 28968 ft | 520 kts | 120° |
| 2026-04-18 12:47 | 43.27878 | 30.06808 | 28969 ft | 520 kts | 120° |
| 2026-04-18 12:47 | 43.25323 | 30.14267 | 28959 ft | 518 kts | 120° |
| 2026-04-18 12:48 | 43.22257 | 30.23183 | 28958 ft | 517 kts | 120° |
| 2026-04-18 12:48 | 43.19183 | 30.32099 | 28952 ft | 517 kts | 120° |
| 2026-04-18 12:49 | 43.16104 | 30.40998 | 28944 ft | 517 kts | 120° |
| 2026-04-18 12:49 | 43.13005 | 30.49926 | 28948 ft | 518 kts | 120° |
| 2026-04-18 12:50 | 43.09905 | 30.58830 | 28948 ft | 518 kts | 120° |
| 2026-04-18 12:50 | 43.06818 | 30.67667 | 28946 ft | 517 kts | 120° |
| 2026-04-18 12:51 | 43.03706 | 30.76545 | 28940 ft | 518 kts | 120° |
| 2026-04-18 12:51 | 43.00586 | 30.85423 | 28934 ft | 517 kts | 120° |
| 2026-04-18 12:52 | 42.97461 | 30.94278 | 28931 ft | 518 kts | 120° |
| 2026-04-18 12:52 | 42.94324 | 31.03142 | 28932 ft | 518 kts | 120° |
| 2026-04-18 12:53 | 42.91199 | 31.11948 | 28923 ft | 519 kts | 120° |
| 2026-04-18 12:53 | 42.88045 | 31.20803 | 28919 ft | 519 kts | 120° |
| 2026-04-18 12:54 | 42.84877 | 31.29671 | 28893 ft | 519 kts | 120° |
| 2026-04-18 12:54 | 42.81722 | 31.38478 | 28924 ft | 517 kts | 120° |
| 2026-04-18 12:55 | 42.78576 | 31.47224 | 28921 ft | 518 kts | 120° |
| 2026-04-18 12:55 | 42.75400 | 31.56032 | 28915 ft | 518 kts | 120° |
| 2026-04-18 12:56 | 42.72234 | 31.64786 | 28902 ft | 514 kts | 120° |
| 2026-04-18 12:56 | 42.69064 | 31.73518 | 28904 ft | 514 kts | 120° |
| 2026-04-18 12:57 | 42.65896 | 31.82220 | 28901 ft | 514 kts | 120° |
| 2026-04-18 12:57 | 42.62720 | 31.90919 | 28893 ft | 508 kts | 120° |
| 2026-04-18 12:58 | 42.59610 | 31.99540 | 28892 ft | 511 kts | 116° |
| 2026-04-18 12:58 | 42.57927 | 32.09008 | 28908 ft | 520 kts | 102° |
| 2026-04-18 12:59 | 42.56822 | 32.18730 | 28905 ft | 521 kts | 102° |
| 2026-04-18 12:59 | 42.55707 | 32.28451 | 28887 ft | 522 kts | 102° |
| 2026-04-18 13:00 | 42.54583 | 32.38161 | 28885 ft | 521 kts | 102° |
| 2026-04-18 13:00 | 42.53450 | 32.47890 | 28890 ft | 522 kts | 102° |
| 2026-04-18 13:01 | 42.52316 | 32.57531 | 28882 ft | 521 kts | 102° |
| 2026-04-18 13:01 | 42.51169 | 32.67237 | 28882 ft | 522 kts | 102° |
| 2026-04-18 13:02 | 42.50009 | 32.76960 | 28882 ft | 521 kts | 102° |
| 2026-04-18 13:02 | 42.48843 | 32.86673 | 28880 ft | 521 kts | 102° |
| 2026-04-18 13:03 | 42.47670 | 32.96364 | 28877 ft | 521 kts | 102° |
| 2026-04-18 13:03 | 42.45901 | 33.10850 | 28876 ft | 521 kts | 102° |
| 2026-04-18 13:04 | 42.44707 | 33.20547 | 28879 ft | 521 kts | 102° |
| 2026-04-18 13:04 | 42.43503 | 33.30235 | 28865 ft | 521 kts | 101° |
| 2026-04-18 13:05 | 42.42302 | 33.39859 | 28873 ft | 522 kts | 101° |
| 2026-04-18 13:05 | 42.41084 | 33.49528 | 28867 ft | 519 kts | 102° |
| 2026-04-18 13:06 | 42.39858 | 33.59199 | 28877 ft | 520 kts | 102° |
| 2026-04-18 13:06 | 42.38632 | 33.68814 | 28859 ft | 516 kts | 102° |
| 2026-04-18 13:07 | 42.37396 | 33.78417 | 28863 ft | 517 kts | 102° |
| 2026-04-18 13:07 | 42.36164 | 33.87943 | 28851 ft | 518 kts | 102° |
| 2026-04-18 13:08 | 42.34913 | 33.97541 | 28854 ft | 517 kts | 102° |
| 2026-04-18 13:08 | 42.33658 | 34.07112 | 28845 ft | 517 kts | 102° |
| 2026-04-18 13:09 | 42.32394 | 34.16676 | 28850 ft | 517 kts | 102° |
| 2026-04-18 13:09 | 42.31121 | 34.26255 | 28851 ft | 517 kts | 102° |
| 2026-04-18 13:10 | 42.29840 | 34.35821 | 28849 ft | 517 kts | 102° |
| 2026-04-18 13:10 | 42.28549 | 34.45404 | 28836 ft | 518 kts | 102° |
| 2026-04-18 13:11 | 42.27261 | 34.54907 | 28844 ft | 517 kts | 102° |
| 2026-04-18 13:11 | 42.25959 | 34.64447 | 28837 ft | 517 kts | 102° |
| 2026-04-18 13:12 | 42.24646 | 34.74004 | 28840 ft | 517 kts | 102° |
| 2026-04-18 13:12 | 42.23325 | 34.83554 | 28846 ft | 517 kts | 102° |
| 2026-04-18 13:13 | 42.21997 | 34.93095 | 28821 ft | 517 kts | 102° |
| 2026-04-18 13:13 | 42.20661 | 35.02638 | 28835 ft | 518 kts | 102° |
| 2026-04-18 13:14 | 42.19324 | 35.12126 | 28834 ft | 519 kts | 103° |
| 2026-04-18 13:14 | 42.17970 | 35.21680 | 28834 ft | 518 kts | 102° |
| 2026-04-18 13:15 | 42.16604 | 35.31236 | 28825 ft | 518 kts | 103° |
| 2026-04-18 13:15 | 42.15235 | 35.40780 | 28819 ft | 519 kts | 103° |
| 2026-04-18 13:16 | 42.13857 | 35.50318 | 28817 ft | 517 kts | 102° |
| 2026-04-18 13:16 | 42.12473 | 35.59833 | 28816 ft | 517 kts | 103° |
| 2026-04-18 13:17 | 42.11085 | 35.69328 | 28818 ft | 517 kts | 103° |
| 2026-04-18 13:17 | 42.09693 | 35.78779 | 28814 ft | 519 kts | 103° |
| 2026-04-18 13:18 | 42.08276 | 35.88355 | 28814 ft | 520 kts | 103° |
| 2026-04-18 13:18 | 42.06851 | 35.97917 | 28814 ft | 522 kts | 103° |
| 2026-04-18 13:19 | 42.05426 | 36.07435 | 28808 ft | 521 kts | 103° |
| 2026-04-18 13:19 | 42.03996 | 36.16909 | 28799 ft | 523 kts | 104° |
| 2026-04-18 13:20 | 42.02548 | 36.26471 | 28798 ft | 522 kts | 104° |
| 2026-04-18 13:20 | 42.01089 | 36.36032 | 28799 ft | 521 kts | 104° |
| 2026-04-18 13:21 | 41.99624 | 36.45584 | 28799 ft | 521 kts | 104° |
| 2026-04-18 13:21 | 41.98147 | 36.55152 | 28794 ft | 522 kts | 104° |
| 2026-04-18 13:22 | 41.96662 | 36.64715 | 28791 ft | 523 kts | 104° |
| 2026-04-18 13:22 | 41.95178 | 36.74222 | 28791 ft | 522 kts | 104° |
| 2026-04-18 13:23 | 41.93682 | 36.83758 | 28791 ft | 521 kts | 105° |
| 2026-04-18 13:23 | 41.92173 | 36.93299 | 28785 ft | 522 kts | 105° |
| 2026-04-18 13:24 | 41.90673 | 37.02821 | 28786 ft | 521 kts | 103° |
| 2026-04-18 13:24 | 41.90262 | 37.12610 | 28789 ft | 527 kts | 94° |
| 2026-04-18 13:25 | 41.90149 | 37.22408 | 28771 ft | 526 kts | 95° |
| 2026-04-18 13:25 | 41.89982 | 37.32245 | 28765 ft | 527 kts | 96° |
| 2026-04-18 13:26 | 41.89831 | 37.42089 | 28769 ft | 528 kts | 95° |
| 2026-04-18 13:26 | 41.89659 | 37.51954 | 28771 ft | 528 kts | 96° |
| 2026-04-18 13:27 | 41.89485 | 37.61802 | 28755 ft | 525 kts | 95° |
| 2026-04-18 13:27 | 41.89301 | 37.71593 | 28747 ft | 525 kts | 96° |
| 2026-04-18 13:28 | 41.89111 | 37.81317 | 28746 ft | 525 kts | 96° |
| 2026-04-18 13:28 | 41.88911 | 37.91135 | 28739 ft | 528 kts | 96° |
| 2026-04-18 13:29 | 41.88702 | 38.00975 | 28738 ft | 527 kts | 96° |
| 2026-04-18 13:29 | 41.88482 | 38.10868 | 28737 ft | 529 kts | 96° |
| 2026-04-18 13:30 | 41.88257 | 38.20692 | 28731 ft | 530 kts | 96° |
| 2026-04-18 13:30 | 41.88022 | 38.30567 | 28731 ft | 530 kts | 96° |
| 2026-04-18 13:31 | 41.87777 | 38.40460 | 28729 ft | 529 kts | 97° |
| 2026-04-18 13:31 | 41.87524 | 38.50365 | 28725 ft | 534 kts | 97° |
| 2026-04-18 13:32 | 41.87261 | 38.60307 | 28719 ft | 533 kts | 97° |
| 2026-04-18 13:32 | 41.86991 | 38.70238 | 28719 ft | 532 kts | 97° |
| 2026-04-18 13:33 | 41.86711 | 38.80172 | 28719 ft | 532 kts | 98° |
| 2026-04-18 13:33 | 41.86425 | 38.90029 | 28723 ft | 533 kts | 98° |
| 2026-04-18 13:34 | 41.86128 | 38.99974 | 28722 ft | 533 kts | 98° |
| 2026-04-18 13:34 | 41.85823 | 39.09914 | 28713 ft | 533 kts | 98° |
| 2026-04-18 13:35 | 41.85508 | 39.19854 | 28715 ft | 533 kts | 98° |
| 2026-04-18 13:35 | 41.85185 | 39.29807 | 28711 ft | 533 kts | 98° |
| 2026-04-18 13:36 | 41.84856 | 39.39694 | 28712 ft | 533 kts | 98° |
| 2026-04-18 13:36 | 41.84516 | 39.49634 | 28712 ft | 534 kts | 98° |
| 2026-04-18 13:37 | 41.84167 | 39.59599 | 28708 ft | 534 kts | 98° |
| 2026-04-18 13:37 | 41.83810 | 39.69567 | 28678 ft | 537 kts | 98° |
| 2026-04-18 13:38 | 41.83445 | 39.79517 | 28704 ft | 537 kts | 98° |
| 2026-04-18 13:38 | 41.83070 | 39.89508 | 28704 ft | 537 kts | 98° |
| 2026-04-18 13:39 | 41.82685 | 39.99510 | 28692 ft | 537 kts | 98° |
| 2026-04-18 13:39 | 41.82293 | 40.09497 | 28691 ft | 537 kts | 98° |
| 2026-04-18 13:40 | 41.81955 | 40.17806 | 28690 ft | 537 kts | 99° |
| 2026-04-18 13:40 | 41.81512 | 40.27796 | 28685 ft | 537 kts | 99° |
| 2026-04-18 13:41 | 41.81078 | 40.37784 | 28683 ft | 537 kts | 99° |
| 2026-04-18 13:41 | 41.80625 | 40.47766 | 28673 ft | 536 kts | 99° |
| 2026-04-18 13:42 | 41.80171 | 40.57707 | 28674 ft | 536 kts | 99° |
| 2026-04-18 13:42 | 41.79705 | 40.67673 | 28673 ft | 536 kts | 99° |
| 2026-04-18 13:43 | 41.79230 | 40.77654 | 28673 ft | 536 kts | 99° |
| 2026-04-18 13:43 | 41.78747 | 40.87619 | 28672 ft | 536 kts | 99° |
| 2026-04-18 13:44 | 41.78255 | 40.97586 | 28666 ft | 534 kts | 99° |
| 2026-04-18 13:44 | 41.77759 | 41.07481 | 28673 ft | 535 kts | 99° |
| 2026-04-18 13:45 | 41.77250 | 41.17424 | 28669 ft | 534 kts | 99° |
| 2026-04-18 13:45 | 41.76736 | 41.27345 | 28671 ft | 534 kts | 99° |
| 2026-04-18 13:46 | 41.76210 | 41.37280 | 28665 ft | 534 kts | 99° |
| 2026-04-18 13:46 | 41.75675 | 41.47249 | 28684 ft | 536 kts | 99° |
| 2026-04-18 13:47 | 41.75136 | 41.57140 | 28686 ft | 536 kts | 99° |
| 2026-04-18 13:47 | 41.74584 | 41.67099 | 28684 ft | 536 kts | 99° |
| 2026-04-18 13:48 | 41.74022 | 41.77084 | 28685 ft | 537 kts | 99° |
| 2026-04-18 13:48 | 41.73452 | 41.87039 | 28681 ft | 536 kts | 99° |
| 2026-04-18 13:49 | 41.72877 | 41.96954 | 28684 ft | 537 kts | 99° |
| 2026-04-18 13:49 | 41.72290 | 42.06924 | 28692 ft | 533 kts | 99° |
| 2026-04-18 13:50 | 41.71208 | 42.16714 | 28707 ft | 530 kts | 105° |
| 2026-04-18 13:50 | 41.69974 | 42.26456 | 28725 ft | 532 kts | 105° |
| 2026-04-18 13:51 | 41.68716 | 42.36168 | 28720 ft | 531 kts | 105° |
| 2026-04-18 13:51 | 41.67460 | 42.45887 | 28739 ft | 531 kts | 105° |
| 2026-04-18 13:52 | 41.66184 | 42.55629 | 28717 ft | 531 kts | 105° |
| 2026-04-18 13:52 | 41.64909 | 42.65345 | 28756 ft | 529 kts | 105° |
| 2026-04-18 13:53 | 41.63618 | 42.75066 | 28761 ft | 534 kts | 105° |
| 2026-04-18 13:53 | 41.62330 | 42.84767 | 28763 ft | 535 kts | 105° |
| 2026-04-18 13:54 | 41.61020 | 42.94504 | 28763 ft | 534 kts | 105° |
| 2026-04-18 13:54 | 41.59703 | 43.04273 | 28784 ft | 534 kts | 105° |
| 2026-04-18 13:55 | 41.58376 | 43.14036 | 28788 ft | 534 kts | 105° |
| 2026-04-18 13:55 | 41.57033 | 43.23829 | 28800 ft | 535 kts | 105° |
| 2026-04-18 13:56 | 41.55691 | 43.33584 | 28809 ft | 536 kts | 105° |
| 2026-04-18 13:56 | 41.54341 | 43.43304 | 28814 ft | 538 kts | 105° |
| 2026-04-18 13:57 | 41.52979 | 43.53080 | 28840 ft | 535 kts | 105° |
| 2026-04-18 13:57 | 41.51591 | 43.62924 | 28870 ft | 547 kts | 105° |
| 2026-04-18 13:58 | 41.50185 | 43.72905 | 28860 ft | 548 kts | 105° |
| 2026-04-18 13:58 | 41.48757 | 43.82915 | 28893 ft | 548 kts | 105° |
| 2026-04-18 13:59 | 41.47340 | 43.92820 | 28911 ft | 547 kts | 105° |
| 2026-04-18 13:59 | 41.45900 | 44.02797 | 28904 ft | 547 kts | 105° |
| 2026-04-18 14:00 | 41.44454 | 44.12768 | 28919 ft | 550 kts | 104° |
| 2026-04-18 14:00 | 41.42996 | 44.22745 | 28927 ft | 549 kts | 104° |
| 2026-04-18 14:01 | 41.41530 | 44.32725 | 28935 ft | 549 kts | 104° |
| 2026-04-18 14:01 | 41.40062 | 44.42649 | 28933 ft | 548 kts | 104° |
| 2026-04-18 14:02 | 41.38579 | 44.52608 | 28936 ft | 548 kts | 104° |
| 2026-04-18 14:02 | 41.37089 | 44.62559 | 28937 ft | 548 kts | 105° |
| 2026-04-18 14:03 | 41.35589 | 44.72512 | 28928 ft | 548 kts | 105° |
| 2026-04-18 14:03 | 41.34077 | 44.82479 | 28912 ft | 550 kts | 105° |
| 2026-04-18 14:04 | 41.32567 | 44.92386 | 28909 ft | 550 kts | 105° |
| 2026-04-18 14:04 | 41.31035 | 45.02361 | 28907 ft | 549 kts | 105° |
| 2026-04-18 14:05 | 41.29495 | 45.12335 | 28894 ft | 550 kts | 105° |
| 2026-04-18 14:05 | 41.27944 | 45.22317 | 28917 ft | 550 kts | 105° |
| 2026-04-18 14:06 | 41.26383 | 45.32306 | 28907 ft | 551 kts | 105° |
| 2026-04-18 14:06 | 41.24815 | 45.42278 | 28908 ft | 552 kts | 105° |
| 2026-04-18 14:07 | 41.23243 | 45.52210 | 28894 ft | 552 kts | 105° |
| 2026-04-18 14:07 | 41.21658 | 45.62185 | 28898 ft | 551 kts | 105° |
| 2026-04-18 14:08 | 41.18182 | 45.76657 | 28896 ft | 548 kts | 112° |
| 2026-04-18 14:09 | 41.15674 | 45.86218 | 28889 ft | 549 kts | 112° |
| 2026-04-18 14:09 | 41.13150 | 45.95781 | 28890 ft | 549 kts | 112° |
| 2026-04-18 14:10 | 41.10636 | 46.05284 | 28887 ft | 549 kts | 112° |
| 2026-04-18 14:10 | 41.08092 | 46.14854 | 28893 ft | 551 kts | 112° |
| 2026-04-18 14:11 | 41.05520 | 46.24493 | 28906 ft | 555 kts | 112° |
| 2026-04-18 14:11 | 41.02932 | 46.34160 | 28908 ft | 556 kts | 112° |
| 2026-04-18 14:12 | 41.00325 | 46.43853 | 28894 ft | 559 kts | 112° |
| 2026-04-18 14:12 | 40.97722 | 46.53500 | 28899 ft | 559 kts | 112° |
| 2026-04-18 14:13 | 40.95097 | 46.63184 | 28894 ft | 559 kts | 112° |
| 2026-04-18 14:13 | 40.92464 | 46.72867 | 28895 ft | 559 kts | 112° |
| 2026-04-18 14:14 | 40.90050 | 46.82655 | 28892 ft | 563 kts | 103° |
| 2026-04-18 14:14 | 40.89262 | 46.92985 | 28908 ft | 566 kts | 96° |
| 2026-04-18 14:15 | 40.88652 | 47.03373 | 28907 ft | 566 kts | 96° |
| 2026-04-18 14:15 | 40.88000 | 47.13758 | 28905 ft | 569 kts | 96° |
| 2026-04-18 14:16 | 40.87362 | 47.24132 | 28903 ft | 570 kts | 96° |
| 2026-04-18 14:16 | 40.86696 | 47.34569 | 28912 ft | 570 kts | 97° |
| 2026-04-18 14:17 | 40.86029 | 47.45005 | 28927 ft | 570 kts | 97° |
| 2026-04-18 14:17 | 40.85004 | 47.60653 | 28932 ft | 570 kts | 96° |